createdAt,value
2023-06-24T00:03:04.572Z,58.15
2023-06-24T00:08:08.216Z,63.02
2023-06-24T00:13:13.823Z,64.07
2023-06-24T00:18:16.712Z,60.31
2023-06-24T00:23:27.781Z,58.20
2023-06-24T00:28:32.302Z,62.57
2023-06-24T00:33:37.550Z,64.63
2023-06-24T00:38:41.243Z,60.51
2023-06-24T00:43:44.102Z,58.03
2023-06-24T00:48:46.902Z,61.02
2023-06-24T00:53:51.096Z,66.11
2023-06-24T00:58:54.445Z,62.29
2023-06-24T01:03:57.440Z,59.35
2023-06-24T01:09:01.401Z,58.23
2023-06-24T01:14:04.418Z,61.69
2023-06-24T01:19:30.100Z,66.49
2023-06-24T01:24:59.400Z,62.02
2023-06-24T01:30:17.270Z,60.19
2023-06-24T01:35:27.854Z,58.67
2023-06-24T01:40:45.324Z,61.96
2023-06-24T01:45:52.508Z,66.30
2023-06-24T01:51:12.010Z,61.96
2023-06-24T01:56:17.466Z,58.86
2023-06-24T02:01:22.080Z,60.49
2023-06-24T02:06:27.991Z,65.57
2023-06-24T02:11:33.686Z,61.91
2023-06-24T02:16:39.162Z,58.99
2023-06-24T02:21:43.345Z,59.23
2023-06-24T02:26:49.661Z,64.31
2023-06-24T02:31:52.620Z,63.80
2023-06-24T02:36:55.414Z,59.94
2023-06-24T02:41:58.238Z,57.87
2023-06-24T02:47:01.613Z,61.70
2023-06-24T02:52:05.030Z,65.31
2023-06-24T02:57:09.798Z,61.57
2023-06-24T03:02:13.097Z,58.44
2023-06-24T03:07:16.189Z,59.31
2023-06-24T03:12:19.214Z,65.09
2023-06-24T03:17:22.119Z,61.33
2023-06-24T03:22:25.458Z,58.39
2023-06-24T03:27:28.320Z,61.72
2023-06-24T03:32:31.233Z,64.95
2023-06-24T03:37:34.093Z,61.14
2023-06-24T03:42:37.059Z,58.48
2023-06-24T03:47:40.024Z,59.27
2023-06-24T03:52:42.835Z,64.44
2023-06-24T03:57:45.659Z,61.33
2023-06-24T04:02:49.078Z,58.08
2023-06-24T04:07:53.530Z,61.12
2023-06-24T04:12:56.467Z,66.04
2023-06-24T04:17:59.321Z,61.63
2023-06-24T04:23:02.293Z,57.92
2023-06-24T04:28:08.090Z,60.31
2023-06-24T04:33:10.867Z,65.08
2023-06-24T04:38:19.201Z,60.60
2023-06-24T04:43:23.004Z,57.44
2023-06-24T04:48:26.092Z,60.76
2023-06-24T04:53:29.104Z,64.21
2023-06-24T04:58:32.073Z,59.77
2023-06-24T05:03:34.858Z,57.37
2023-06-24T05:08:37.673Z,59.62
2023-06-24T05:13:41.152Z,64.18
2023-06-24T05:18:46.504Z,59.90
2023-06-24T05:23:49.440Z,57.33
2023-06-24T05:28:52.386Z,60.16
2023-06-24T05:33:55.322Z,64.35
2023-06-24T05:38:58.175Z,59.46
2023-06-24T05:44:05.837Z,57.96
2023-06-24T05:49:08.687Z,60.82
2023-06-24T05:54:11.581Z,61.21
2023-06-24T05:59:14.397Z,54.85
2023-06-24T06:04:17.324Z,55.22
2023-06-24T06:09:22.013Z,56.19
2023-06-24T06:14:28.223Z,56.34
2023-06-24T06:19:31.712Z,56.76
2023-06-24T06:24:37.007Z,60.17
2023-06-24T06:29:39.823Z,59.26
2023-06-24T06:34:44.369Z,59.50
2023-06-24T06:39:47.354Z,59.31
2023-06-24T06:44:50.095Z,57.48
2023-06-24T06:49:52.957Z,57.10
2023-06-24T06:54:56.444Z,57.31
2023-06-24T06:59:59.855Z,57.86
2023-06-24T07:05:02.998Z,56.89
2023-06-24T07:10:07.297Z,56.88
2023-06-24T07:15:13.384Z,53.44
2023-06-24T07:20:16.564Z,53.37
2023-06-24T07:25:19.435Z,53.08
2023-06-24T07:30:22.287Z,50.78
2023-06-24T07:35:25.658Z,49.96
2023-06-24T07:40:28.518Z,49.00
2023-06-24T07:45:31.407Z,47.68
2023-06-24T07:50:35.722Z,45.83
2023-06-24T07:55:38.696Z,45.98
2023-06-24T08:00:42.308Z,43.62
2023-06-24T08:05:46.325Z,40.25
2023-06-24T08:10:50.875Z,35.26
2023-06-24T08:15:53.733Z,34.57
2023-06-24T08:20:56.762Z,33.16
2023-06-24T08:26:12.226Z,32.00
2023-06-24T08:31:19.920Z,30.35
2023-06-24T08:36:25.549Z,28.12
2023-06-24T08:41:28.412Z,28.13
2023-06-24T08:46:34.789Z,30.65
2023-06-24T08:51:44.020Z,30.47
2023-06-24T08:56:46.889Z,32.95
2023-06-24T09:01:51.473Z,33.11
2023-06-24T09:06:54.436Z,34.40
2023-06-24T09:12:12.421Z,35.14
2023-06-24T09:17:18.683Z,36.12
2023-06-24T09:22:21.610Z,37.44
2023-06-24T09:27:25.228Z,38.18
2023-06-24T09:32:31.934Z,38.01
2023-06-24T09:37:35.402Z,38.71
2023-06-24T09:42:38.390Z,39.49
2023-06-24T09:47:41.549Z,39.32
2023-06-24T09:52:46.394Z,39.26
2023-06-24T09:57:54.569Z,39.77
2023-06-24T10:03:00.809Z,39.93
2023-06-24T10:08:08.130Z,39.68
2023-06-24T10:13:11.207Z,39.77
2023-06-24T10:18:32.804Z,39.12
2023-06-24T10:23:48.418Z,38.66
2023-06-24T10:29:07.416Z,38.21
2023-06-24T10:34:14.020Z,38.70
2023-06-24T10:39:41.292Z,39.49
2023-06-24T10:44:50.505Z,39.54
2023-06-24T10:49:53.445Z,39.81
2023-06-24T10:54:58.697Z,38.67
2023-06-24T11:00:03.041Z,38.93
2023-06-24T11:05:07.100Z,39.50
2023-06-24T11:10:14.289Z,38.69
2023-06-24T11:15:18.533Z,37.47
2023-06-24T11:20:21.943Z,37.71
2023-06-24T11:25:24.953Z,38.09
2023-06-24T11:30:29.479Z,38.88
2023-06-24T11:35:36.457Z,39.00
2023-06-24T11:40:40.398Z,39.42
2023-06-24T11:45:43.281Z,38.82
2023-06-24T11:50:55.150Z,38.90
2023-06-24T11:55:58.548Z,40.08
2023-06-24T12:01:01.745Z,40.56
2023-06-24T12:06:04.648Z,40.53
2023-06-24T12:11:07.637Z,39.61
2023-06-24T12:16:10.419Z,40.12
2023-06-24T12:21:13.380Z,40.35
2023-06-24T12:26:16.628Z,40.39
2023-06-24T12:31:19.430Z,40.66
2023-06-24T12:36:23.554Z,40.62
2023-06-24T12:41:28.265Z,40.78
2023-06-24T12:46:31.094Z,40.05
2023-06-24T12:51:34.514Z,39.75
2023-06-24T12:56:37.469Z,39.67
2023-06-24T13:01:40.724Z,39.11
2023-06-24T13:06:43.609Z,38.65
2023-06-24T13:11:46.770Z,38.66
2023-06-24T13:16:49.661Z,38.44
2023-06-24T13:21:52.570Z,39.00
2023-06-24T13:26:55.393Z,39.54
2023-06-24T13:31:58.252Z,40.41
2023-06-24T13:37:01.894Z,40.64
2023-06-24T13:42:04.999Z,40.22
2023-06-24T13:47:08.202Z,39.87
2023-06-24T13:52:11.077Z,40.07
2023-06-24T13:57:13.994Z,39.22
2023-06-24T14:02:17.010Z,39.40
2023-06-24T14:07:20.283Z,39.87
2023-06-24T14:12:23.479Z,39.94
2023-06-24T14:17:26.478Z,40.31
2023-06-24T14:22:32.458Z,40.57
2023-06-24T14:27:35.331Z,40.87
2023-06-24T14:32:43.944Z,41.55
2023-06-24T14:37:46.812Z,42.04
2023-06-24T14:42:49.656Z,42.36
2023-06-24T14:47:52.835Z,42.44
2023-06-24T14:52:55.657Z,42.63
2023-06-24T14:57:58.943Z,43.06
2023-06-24T15:03:03.935Z,43.42
2023-06-24T15:08:07.799Z,43.31
2023-06-24T15:13:12.961Z,43.57
2023-06-24T15:18:18.257Z,42.89
2023-06-24T15:23:22.408Z,42.16
2023-06-24T15:28:28.198Z,41.37
2023-06-24T15:33:31.254Z,40.79
2023-06-24T15:38:34.194Z,40.57
2023-06-24T15:43:37.128Z,41.10
2023-06-24T15:48:42.476Z,41.85
2023-06-24T15:53:45.500Z,42.98
2023-06-24T15:58:48.450Z,44.00
2023-06-24T16:03:53.896Z,45.85
2023-06-24T16:08:57.724Z,47.17
2023-06-24T16:14:01.305Z,48.37
2023-06-24T16:19:04.774Z,49.52
2023-06-24T16:24:07.625Z,50.42
2023-06-24T16:29:10.459Z,51.30
2023-06-24T16:34:23.311Z,51.41
2023-06-24T16:39:27.495Z,51.65
2023-06-24T16:44:33.966Z,51.39
2023-06-24T16:49:36.780Z,50.92
2023-06-24T16:54:39.554Z,50.58
2023-06-24T16:59:42.501Z,50.95
2023-06-24T17:04:45.372Z,51.54
2023-06-24T17:09:48.349Z,51.54
2023-06-24T17:14:52.413Z,51.71
2023-06-24T17:19:55.279Z,50.16
2023-06-24T17:24:58.359Z,49.20
2023-06-24T17:30:02.721Z,49.97
2023-06-24T17:35:06.067Z,50.21
2023-06-24T17:40:10.009Z,49.71
2023-06-24T17:45:13.069Z,49.46
2023-06-24T17:50:16.511Z,49.78
2023-06-24T17:55:19.536Z,50.20
2023-06-24T18:00:22.477Z,51.13
2023-06-24T18:05:25.853Z,52.20
2023-06-24T18:10:28.949Z,53.59
2023-06-24T18:15:31.936Z,54.11
2023-06-24T18:20:35.080Z,54.60
2023-06-24T18:25:38.415Z,55.27
2023-06-24T18:30:41.244Z,55.54
2023-06-24T18:35:44.227Z,56.36
2023-06-24T18:40:47.024Z,56.58
2023-06-24T18:45:51.768Z,57.03
2023-06-24T18:50:54.863Z,58.43
2023-06-24T18:55:58.231Z,57.56
2023-06-24T19:01:01.603Z,58.13
2023-06-24T19:06:04.406Z,58.29
2023-06-24T19:11:07.394Z,58.71
2023-06-24T19:16:10.205Z,58.99
2023-06-24T19:21:13.250Z,58.40
2023-06-24T19:26:16.132Z,58.39
2023-06-24T19:31:19.225Z,58.20
2023-06-24T19:36:22.261Z,57.99
2023-06-24T19:41:25.068Z,59.25
2023-06-24T19:46:40.122Z,59.53
2023-06-24T19:51:44.475Z,59.90
2023-06-24T19:56:47.372Z,60.30
2023-06-24T20:01:50.217Z,60.72
2023-06-24T20:06:53.206Z,61.33
2023-06-24T20:11:56.262Z,62.31
2023-06-24T20:16:59.030Z,57.78
2023-06-24T20:22:02.556Z,58.81
2023-06-24T20:27:07.825Z,59.86
2023-06-24T20:32:11.955Z,61.12
2023-06-24T20:37:14.917Z,64.49
2023-06-24T20:42:17.804Z,61.83
2023-06-24T20:47:20.606Z,55.66
2023-06-24T20:52:23.490Z,56.44
2023-06-24T20:57:26.300Z,59.47
2023-06-24T21:02:30.300Z,60.66
2023-06-24T21:07:34.540Z,61.01
2023-06-24T21:12:49.620Z,67.48
2023-06-24T21:18:01.723Z,63.28
2023-06-24T21:23:05.638Z,58.12
2023-06-24T21:28:08.652Z,60.27
2023-06-24T21:33:11.630Z,64.17
2023-06-24T21:38:14.431Z,58.71
2023-06-24T21:43:17.580Z,60.70
2023-06-24T21:48:22.861Z,65.66
2023-06-24T21:53:28.350Z,64.31
2023-06-24T21:58:32.844Z,59.96
2023-06-24T22:03:35.646Z,63.70
2023-06-24T22:08:38.611Z,65.26
2023-06-24T22:13:41.473Z,61.90
2023-06-24T22:18:44.303Z,59.29
2023-06-24T22:23:47.183Z,61.64
2023-06-24T22:28:50.510Z,66.86
2023-06-24T22:33:58.691Z,62.20
2023-06-24T22:39:17.064Z,61.10
2023-06-24T22:44:26.564Z,68.27
2023-06-24T22:49:30.276Z,64.30
2023-06-24T22:54:33.044Z,61.84
2023-06-24T22:59:35.862Z,59.80
2023-06-24T23:04:38.846Z,60.83
2023-06-24T23:09:42.026Z,67.44
2023-06-24T23:14:45.178Z,65.75
2023-06-24T23:19:50.047Z,62.67
2023-06-24T23:24:56.301Z,60.93
2023-06-24T23:30:02.045Z,58.91
2023-06-24T23:35:11.919Z,62.32
2023-06-24T23:40:14.823Z,65.56
2023-06-24T23:45:17.975Z,61.41
2023-06-24T23:50:20.782Z,59.12
2023-06-24T23:55:24.975Z,63.90
